»·PEaware :: N148TS KSNA-KSNA

N148TS :: KSNA-KSNA

FLIGHT INFORMATION

Flight Status: Arrived
Operator: Privately registered:
United States
More flights under this callsign
Pilot: Anonymous 33487 (33487)
Aircraft: CESSNA 182 SKYLANE
(C182)
More flights by this aircraft type
Origin: KSNA John Wayne-Orange Co
United States
Destination: KSNA John Wayne-Orange Co
United States
More flights between these airports :: More routes between these airports
Route: PRACTICE APPROACHES
File this flight plan on PilotEdge
Remarks:
Altitude:
(Current/Filed)
2,400ft
Speed:
(Current/Filed)
0kts
Departed: 26-Jul-22 04:34 PM
Arrived: 26-Jul-22 05:24 PM
Distance/Time
Traveled:
0nm/0:49
Distance/Time
To Go:
Arrived

Flight Plot

Page will automatically refresh every two minutes.

Flight plan parsing failed; only flown route is shown


Map Options




Map Legend


Flown Route
Filed Route
Departure Airport
Arrival Airport
Navaid (VOR, NDB)
Fix

Horizontal Profiles

Position Reports

Time Latitude Longitude Heading Altitude Ground
Speed
26-Jul-22 16:23 33.675234 -117.871790 219 62ft 0kts
26-Jul-22 16:24 33.675234 -117.871790 219 62ft 0kts
26-Jul-22 16:25 33.675233 -117.871790 219 62ft 0kts
26-Jul-22 16:26 33.675233 -117.871790 219 62ft 0kts
26-Jul-22 16:27 33.675009 -117.871648 132 62ft 0kts
26-Jul-22 16:28 33.674715 -117.870967 44 62ft 10kts
26-Jul-22 16:29 33.676762 -117.869210 30 62ft 0kts
26-Jul-22 16:30 33.676768 -117.869206 30 62ft 0kts
26-Jul-22 16:31 33.677451 -117.869233 20 62ft 8kts
26-Jul-22 16:32 33.681170 -117.866943 39 62ft 7kts
26-Jul-22 16:33 33.681213 -117.866442 114 62ft 1kts
26-Jul-22 16:34 33.671509 -117.871346 207 432ft 87kts
26-Jul-22 16:35 33.656194 -117.896052 234 1557ft 88kts
26-Jul-22 16:36 33.640683 -117.922082 230 2570ft 96kts
26-Jul-22 16:37 33.621626 -117.951480 234 3020ft 137kts
26-Jul-22 16:38 33.622141 -117.990199 345 2965ft 141kts
26-Jul-22 16:38 33.652585 -117.976293 22 3044ft 136kts
26-Jul-22 16:40 33.693584 -117.953120 27 2898ft 143kts
26-Jul-22 16:41 33.728033 -117.932627 28 2903ft 140kts
26-Jul-22 16:42 33.761910 -117.912527 24 3083ft 128kts
26-Jul-22 16:42 33.782998 -117.898508 27 2934ft 144kts
26-Jul-22 16:43 33.818319 -117.875911 24 2877ft 140kts
26-Jul-22 16:44 33.853591 -117.855861 27 2902ft 141kts
26-Jul-22 16:46 33.895067 -117.833666 25 3002ft 142kts
26-Jul-22 16:47 33.931013 -117.813408 19 3018ft 144kts
26-Jul-22 16:47 33.962230 -117.799712 20 3010ft 141kts
26-Jul-22 16:48 33.996632 -117.780204 30 3042ft 146kts
26-Jul-22 16:49 33.998209 -117.742673 148 2875ft 147kts
26-Jul-22 16:51 33.961154 -117.721024 155 2957ft 114kts
26-Jul-22 16:51 33.936920 -117.717426 182 2997ft 96kts
26-Jul-22 16:52 33.911058 -117.721647 189 2946ft 98kts
26-Jul-22 16:53 33.884927 -117.734761 210 2966ft 102kts
26-Jul-22 16:54 33.857832 -117.751427 210 3046ft 118kts
26-Jul-22 16:55 33.829751 -117.770862 208 3011ft 111kts
26-Jul-22 16:56 33.805369 -117.786216 205 2882ft 94kts
26-Jul-22 16:57 33.781520 -117.801499 206 2424ft 98kts
26-Jul-22 16:58 33.757671 -117.816995 209 1776ft 89kts
26-Jul-22 16:59 33.735334 -117.831281 207 1313ft 99kts
26-Jul-22 17:00 33.710823 -117.846324 207 704ft 96kts
26-Jul-22 17:01 33.688890 -117.860543 209 288ft 88kts
26-Jul-22 17:02 33.668307 -117.873544 207 327ft 97kts
26-Jul-22 17:03 33.656358 -117.898681 311 993ft 129kts
26-Jul-22 17:04 33.688685 -117.899277 25 1149ft 126kts
26-Jul-22 17:05 33.706031 -117.871867 119 906ft 103kts
26-Jul-22 17:06 33.688269 -117.860812 207 351ft 71kts
26-Jul-22 17:07 33.673192 -117.870637 212 208ft 75kts
26-Jul-22 17:08 33.664035 -117.893264 319 1197ft 107kts
26-Jul-22 17:09 33.692440 -117.876076 36 1006ft 119kts
26-Jul-22 17:10 33.689176 -117.860323 209 325ft 77kts
26-Jul-22 17:11 33.674609 -117.869524 209 110ft 63kts
26-Jul-22 17:12 33.667893 -117.891702 303 949ft 107kts
26-Jul-22 17:13 33.696030 -117.876673 40 972ft 124kts
26-Jul-22 17:14 33.690454 -117.859407 206 349ft 74kts
26-Jul-22 17:15 33.675545 -117.868912 207 68ft 64kts
26-Jul-22 17:16 33.671169 -117.887231 314 966ft 99kts
26-Jul-22 17:17 33.700516 -117.875907 32 938ft 111kts
26-Jul-22 17:18 33.693188 -117.859703 182 397ft 80kts
26-Jul-22 17:19 33.677273 -117.867808 209 62ft 47kts
26-Jul-22 17:20 33.665692 -117.884424 302 848ft 101kts
26-Jul-22 17:21 33.692628 -117.878696 36 909ft 141kts
26-Jul-22 17:22 33.687639 -117.861260 206 269ft 72kts
26-Jul-22 17:23 33.675900 -117.869635 297 62ft 18kts
26-Jul-22 17:24 33.675976 -117.869828 292 62ft 0kts
26-Jul-22 17:25 33.676135 -117.870873 217 62ft 0kts

Navigation Log

Ident Type
Flight plan parsing failed, navigation log unavailable